Terminal Aerodrome Forecast
Issued by NWS

Home | Current Version | Previous Version | Text Only | Print | Product List | Glossary Off
Versions: 1 2 3 4 5 6 7 8 9 10 11 12 13 14 15 16 17 18 19 20 21 22 23

315
FTUS43 KOAX 211005 AAB
TAFCDR
TAF AMD
KCDR 211005Z 2110/2206 09008KT 6SM -SHRA SCT020 OVC050
      TEMPO 2110/2112 4SM -RA OVC025
     FM211400 08010KT P6SM SCT015 OVC030
     FM211900 12014G20KT P6SM OVC150
     FM212200 11019KT P6SM OVC100
     FM220200 16021G28KT P6SM OVC050=

USA.gov is the U.S. government's official web portal to all federal, state and local government web resources and services.